createdAt,value
2023-04-02T00:23:23.066Z,99.2
2023-04-02T00:51:52.596Z,96.88
2023-04-02T01:20:11.567Z,97.75
2023-04-02T01:48:36.979Z,96.6
2023-04-02T02:16:59.238Z,99.25
2023-04-02T02:45:23.656Z,100
2023-04-02T03:13:36.541Z,100
2023-04-02T03:41:56.445Z,99.97
2023-04-02T04:10:15.817Z,99.32
2023-04-02T04:38:37.338Z,99.17
2023-04-02T05:06:56.166Z,100
2023-04-02T05:35:18.196Z,100
2023-04-02T06:03:33.346Z,100
2023-04-02T06:31:52.614Z,100
2023-04-02T07:00:14.814Z,98.49
2023-04-02T07:28:40.920Z,93.14
2023-04-02T07:57:37.785Z,93.38
2023-04-02T08:26:37.260Z,90.56
2023-04-02T08:55:45.035Z,84.77
2023-04-02T09:24:52.195Z,79.53
2023-04-02T09:53:54.539Z,73.7
2023-04-02T10:22:59.297Z,79.69
2023-04-02T10:52:16.712Z,73.67
2023-04-02T11:21:16.594Z,66.79
2023-04-02T11:50:12.616Z,66.93
2023-04-02T12:19:07.063Z,61.86
2023-04-02T12:47:57.802Z,63.93
2023-04-02T13:16:49.587Z,63.05
2023-04-02T13:45:39.394Z,70.2
2023-04-02T14:14:35.251Z,61.78
2023-04-02T14:43:24.980Z,66.68
2023-04-02T15:12:19.429Z,70.31
2023-04-02T15:40:53.767Z,87.71
2023-04-02T16:09:43.988Z,90.78
2023-04-02T16:38:39.550Z,94.38
2023-04-02T17:07:40.442Z,96.46
2023-04-02T17:36:35.882Z,96.97
2023-04-02T18:05:31.133Z,97.38
2023-04-02T18:34:21.089Z,99.62
2023-04-02T19:03:21.069Z,98.38
2023-04-02T19:31:32.461Z,98.53
2023-04-02T20:00:20.990Z,97.46
2023-04-02T20:29:18.301Z,92.96
2023-04-02T20:58:09.957Z,86.54
2023-04-02T21:27:07.587Z,83.92
2023-04-02T21:55:51.838Z,82.75
2023-04-02T22:24:46.995Z,80.87
2023-04-02T22:53:43.315Z,80.36
2023-04-02T23:22:38.258Z,78.94
2023-04-02T23:51:30.700Z,76.84
